DBV weather

Dubrovnik Airport
Dubrovnik, Dubrovnik-Neretva County, Croatia

Public forecast

Using degrees Celsius for public forecast. Weather courtesy of forecast.io.

METAR (pilot weather report)

Retrieved 2019/04/26 01:30 UTC (0 seconds ago):

LDDU 260130Z 10007KT CAVOK 16/07 Q1021

TAF (pilot weather forecast)

Forecast is more than 12 hours old.

Retrieved 2019/04/25 00:26 UTC (1 day ago):

TAF LDDU 252325Z 2600/2700 09006KT CAVOK TX23/2612Z TN15/2604Z BECMG 2607/2609 19008KT BECMG 2618/2620 09007KT